Seale, AL

2:26 AM CST on February 08, 2016 (GMT -0600)
Lawson Army Air Field

Weather History for KLSF - February, 2014

Change the Weather History Date:

Thursday, February 13, 2014

  Actual Average Record
Temperature  
Mean Temperature 43 °F -  
Max Temperature 55 °F 61 °F 71 °F (2000)
Min Temperature 30 °F 35 °F 19 °F (2012)
Degree Days  
Heating Degree Days 22    
Moisture  
Dew Point 33 °F    
Average Humidity 89    
Maximum Humidity 100    
Minimum Humidity 39    
Precipitation  
Precipitation 0.00 in - - ()
Sea Level Pressure  
Sea Level Pressure 29.85 in    
Wind  
Wind Speed 7 mph (NW)    
Max Wind Speed 21 mph    
Max Gust Speed 29 mph    
Visibility 10 miles    
Events Rain    
Averages and records for this station are not official NWS values.
T = Trace of Precipitation, MM = Missing Value Source: NWS Daily Summary

Daily Weather History Graph

Daily Weather History Graph

Search for Another Location

Airport or City:

Trip Planner

Search our weather history database for the weather conditions in past years. The results will help you decide how hot, cold, wet, or windy it might be!

Date:

Astronomy

Feb. 13, 2014 Rise Set
Actual Time 7:24 AM EST 6:24 PM EST
Civil Twilight 6:59 AM EST 6:49 PM EST
Nautical Twilight 6:30 AM EST 7:18 PM EST
Astronomical Twilight 6:01 AM EST 7:46 PM EST
Moon 5:31 PM EST (2/13) 6:16 AM EST (2/13)
Length of Visible Light 11h 50m
Length of Day
10h 59m
Waxing Gibbous, 98% of the Moon is Illuminated
Feb 13
Waxing Gibbous
Feb 14
Full
Feb 22
Last Quarter
Mar 1
New
Mar 8
First Quarter

Hourly Weather History & Observations

Time (EST) Temp. Windchill Dew Point Humidity Pressure Visibility Wind Dir Wind Speed Gust Speed Precip Events Conditions
12:04 AM 33.8 °F 29.6 °F 33.8 °F 100% 29.80 in 10.0 mi North 4.6 mph - N/A   Light Drizzle
12:07 AM 33.8 °F 29.6 °F 33.8 °F 100% 29.80 in 10.0 mi NNW 4.6 mph - N/A   Overcast
12:22 AM 33.8 °F 29.6 °F 33.8 °F 100% 29.80 in 10.0 mi NW 4.6 mph - N/A   Overcast
12:32 AM 33.8 °F 28.6 °F 33.8 °F 100% 29.80 in 10.0 mi NW 5.8 mph - N/A   Overcast
12:37 AM 33.8 °F 29.6 °F 33.8 °F 100% 29.80 in 10.0 mi NW 4.6 mph - N/A Rain Light Rain
12:42 AM 33.8 °F 28.6 °F 33.8 °F 100% 29.80 in 10.0 mi NW 5.8 mph - N/A Rain Light Rain
12:47 AM 33.8 °F 27.7 °F 33.8 °F 100% 29.80 in 10.0 mi NW 6.9 mph - N/A Rain Light Rain
12:57 AM 33.8 °F 29.6 °F 33.8 °F 100% 29.79 in 10.0 mi NW 4.6 mph - N/A   Overcast
12:58 AM 33.8 °F 29.6 °F 33.8 °F 100% 29.81 in 10.0 mi NNW 4.6 mph - 0.00 in   Overcast
1:08 AM 33.8 °F 30.8 °F 33.8 °F 100% 29.79 in 10.0 mi NW 3.5 mph - N/A   Overcast
1:18 AM 33.8 °F 28.6 °F 33.8 °F 100% 29.79 in 10.0 mi NW 5.8 mph - N/A   Overcast
1:28 AM 33.8 °F 28.6 °F 33.8 °F 100% 29.79 in 10.0 mi NNW 5.8 mph - N/A   Overcast
1:58 AM 34.2 °F 29.0 °F 34.0 °F 99% 29.81 in 10.0 mi NW 5.8 mph - 0.00 in   Overcast
2:18 AM 33.8 °F 26.4 °F 33.8 °F 100% 29.80 in 10.0 mi NW 9.2 mph - N/A   Overcast
2:54 AM 32.0 °F 23.6 °F 32.0 °F 100% 29.79 in 10.0 mi NNW 10.4 mph - N/A Rain Light Rain
2:58 AM 33.6 °F 26.2 °F 33.3 °F 99% 29.81 in 10.0 mi NNW 9.2 mph - 0.00 in Rain Light Rain
3:04 AM 32.0 °F 23.6 °F 32.0 °F 100% 29.80 in 10.0 mi NW 10.4 mph - N/A   Overcast
3:29 AM 32.0 °F 26.4 °F 32.0 °F 100% 29.81 in 10.0 mi NW 5.8 mph - N/A   Overcast
3:58 AM 33.6 °F 26.8 °F 33.3 °F 99% 29.83 in 10.0 mi NW 8.1 mph - 0.00 in   Overcast
4:03 AM 32.0 °F 26.4 °F 32.0 °F 100% 29.81 in 10.0 mi NW 5.8 mph - N/A   Overcast
4:08 AM 32.0 °F 25.6 °F 32.0 °F 100% 29.81 in 10.0 mi NW 6.9 mph - N/A   Overcast
4:18 AM 32.0 °F 25.6 °F 32.0 °F 100% 29.81 in 10.0 mi NW 6.9 mph - N/A   Overcast
4:23 AM 32.0 °F 25.6 °F 32.0 °F 100% 29.81 in 10.0 mi NW 6.9 mph - N/A   Overcast
4:34 AM 32.0 °F 26.4 °F 32.0 °F 100% 29.81 in 10.0 mi NW 5.8 mph - N/A Rain Light Rain
4:39 AM 32.0 °F 25.6 °F 32.0 °F 100% 29.81 in 10.0 mi NW 6.9 mph - N/A Rain Light Rain
4:44 AM 32.0 °F 24.8 °F 32.0 °F 100% 29.81 in 10.0 mi NW 8.1 mph - N/A Rain Light Rain
4:46 AM 32.0 °F 26.4 °F 32.0 °F 100% 29.81 in 10.0 mi NW 5.8 mph - N/A   Overcast
4:58 AM 33.1 °F 27.7 °F 32.5 °F 98% 29.83 in 10.0 mi NW 5.8 mph - 0.00 in   Overcast
5:03 AM 32.0 °F 26.4 °F 32.0 °F 100% 29.81 in 10.0 mi NW 5.8 mph - N/A   Overcast
5:48 AM 32.0 °F 26.4 °F 32.0 °F 100% 29.81 in 10.0 mi NW 5.8 mph - N/A   Overcast
5:53 AM 32.0 °F 25.6 °F 32.0 °F 100% 29.82 in 10.0 mi NW 6.9 mph - N/A   Overcast
5:58 AM 33.3 °F 28.9 °F 32.5 °F 97% 29.84 in 10.0 mi NW 4.6 mph - N/A   Overcast
6:18 AM 32.0 °F 26.4 °F 32.0 °F 100% 29.83 in 10.0 mi WNW 5.8 mph - N/A   Overcast
6:58 AM 33.1 °F 26.9 °F 32.4 °F 97% 29.86 in 10.0 mi WNW 6.9 mph - N/A   Overcast
7:28 AM 32.0 °F 25.6 °F 32.0 °F 100% 29.85 in 10.0 mi West 6.9 mph - N/A   Overcast
7:43 AM 32.0 °F 25.6 °F 32.0 °F 100% 29.85 in 10.0 mi WNW 6.9 mph - N/A   Overcast
7:58 AM 34.0 °F 28.0 °F 33.3 °F 97% 29.87 in 10.0 mi West 6.9 mph - N/A   Overcast
8:03 AM 33.8 °F 26.4 °F 32.0 °F 93% 29.85 in 10.0 mi West 9.2 mph - N/A   Overcast
8:13 AM 33.8 °F 26.4 °F 33.8 °F 100% 29.86 in 10.0 mi WNW 9.2 mph - N/A   Overcast
8:53 AM 35.6 °F 28.0 °F 35.6 °F 100% 29.87 in 10.0 mi West 10.4 mph 18.4 mph N/A   Overcast
8:58 AM 36.3 °F 28.9 °F 35.1 °F 95% 29.88 in 10.0 mi WNW 10.4 mph 18.4 mph N/A   Overcast
9:58 AM 38.3 °F 31.9 °F 36.3 °F 93% 29.91 in 10.0 mi WNW 9.2 mph - N/A   Overcast
10:23 AM 41.0 °F 33.9 °F 37.4 °F 87% 29.89 in 10.0 mi WNW 12.7 mph 18.4 mph N/A   Mostly Cloudy
10:33 AM 41.0 °F 33.5 °F 37.4 °F 87% 29.90 in 10.0 mi WNW 13.8 mph - N/A   Mostly Cloudy
10:38 AM 42.8 °F 36.2 °F 37.4 °F 81% 29.90 in 10.0 mi WNW 12.7 mph - N/A   Scattered Clouds
10:58 AM 42.8 °F 35.4 °F 36.0 °F 77% 29.91 in 10.0 mi NW 15.0 mph 21.9 mph N/A   Partly Cloudy
11:58 AM 46.8 °F - 35.1 °F 64% 29.91 in 10.0 mi NW 16.1 mph 23.0 mph N/A   Clear
12:58 PM 49.6 °F - 33.3 °F 53% 29.87 in 10.0 mi NW 16.1 mph 24.2 mph N/A   Clear
1:02 PM 50.0 °F - 32.0 °F 50% 29.85 in 10.0 mi NNW 20.7 mph 25.3 mph N/A   Clear
1:58 PM 52.3 °F - 29.8 °F 42% 29.85 in 10.0 mi NW 16.1 mph 27.6 mph N/A   Clear
2:58 PM 54.1 °F - 30.6 °F 41% 29.85 in 10.0 mi NW 20.7 mph 28.8 mph N/A   Clear
3:58 PM 55.6 °F - 30.9 °F 39% 29.85 in 10.0 mi NW 12.7 mph 27.6 mph N/A   Clear
4:58 PM 55.0 °F - 30.4 °F 39% 29.87 in 10.0 mi NW 13.8 mph - N/A   Clear
5:58 PM 52.3 °F - 29.7 °F 42% 29.88 in 10.0 mi WNW 12.7 mph - N/A   Clear
6:58 PM 45.0 °F 41.8 °F 29.5 °F 55% 29.91 in 10.0 mi West 5.8 mph - N/A   Clear
7:58 PM 37.2 °F - 30.2 °F 76% 29.93 in 10.0 mi East 2.3 mph - N/A   Clear
8:58 PM 35.1 °F - 29.8 °F 81% 29.94 in 10.0 mi SE 2.3 mph - N/A   Clear
9:38 PM 32.0 °F 27.5 °F 32.0 °F 100% 29.93 in 10.0 mi SE 4.6 mph - N/A   Clear
9:50 PM 32.0 °F 28.7 °F 28.4 °F 87% 29.94 in 10.0 mi SE 3.5 mph - N/A   Clear
9:58 PM 32.9 °F - 29.3 °F 87% 29.96 in 10.0 mi ESE 2.3 mph - 0.00 in   Clear
10:58 PM 31.3 °F - 28.4 °F 89% 29.96 in 10.0 mi East 2.3 mph - N/A   Clear
11:58 PM 30.7 °F 26.0 °F 28.8 °F 92% 29.96 in 10.0 mi ESE 4.6 mph - N/A   Clear